createdAt,value
2023-07-14T00:00:48.071Z,100.00
2023-07-14T00:03:37.082Z,100.00
2023-07-14T00:06:08.621Z,100.00
2023-07-14T00:08:37.258Z,100.00
2023-07-14T00:11:14.078Z,100.00
2023-07-14T00:13:44.680Z,100.00
2023-07-14T00:16:18.107Z,100.00
2023-07-14T00:18:48.411Z,100.00
2023-07-14T00:21:22.166Z,100.00
2023-07-14T00:23:57.413Z,100.00
2023-07-14T00:26:27.555Z,100.00
2023-07-14T00:28:57.815Z,100.00
2023-07-14T00:31:28.481Z,100.00
2023-07-14T00:33:58.954Z,100.00
2023-07-14T00:36:30.074Z,100.00
2023-07-14T00:38:59.978Z,100.00
2023-07-14T00:41:30.140Z,100.00
2023-07-14T00:44:00.016Z,100.00
2023-07-14T00:46:32.975Z,100.00
2023-07-14T00:49:07.837Z,100.00
2023-07-14T00:51:39.535Z,100.00
2023-07-14T00:54:25.273Z,100.00
2023-07-14T00:56:57.435Z,100.00
2023-07-14T00:59:34.053Z,100.00
2023-07-14T01:02:21.395Z,100.00
2023-07-14T01:04:54.561Z,100.00
2023-07-14T01:07:29.998Z,100.00
2023-07-14T01:10:02.641Z,100.00
2023-07-14T01:12:37.650Z,100.00
2023-07-14T01:15:10.478Z,100.00
2023-07-14T01:17:41.013Z,100.00
2023-07-14T01:20:11.920Z,100.00
2023-07-14T01:22:53.587Z,100.00
2023-07-14T01:25:37.899Z,100.00
2023-07-14T01:28:09.747Z,100.00
2023-07-14T01:30:39.029Z,100.00
2023-07-14T01:33:14.082Z,100.00
2023-07-14T01:35:48.561Z,100.00
2023-07-14T01:38:19.133Z,100.00
2023-07-14T01:40:49.325Z,100.00
2023-07-14T01:43:19.425Z,100.00
2023-07-14T01:45:54.423Z,100.00
2023-07-14T01:48:28.199Z,100.00
2023-07-14T01:51:01.076Z,100.00
2023-07-14T01:53:34.047Z,100.00
2023-07-14T01:56:07.043Z,100.00
2023-07-14T01:58:44.210Z,100.00
2023-07-14T02:01:15.760Z,100.00
2023-07-14T02:03:52.150Z,100.00
2023-07-14T02:06:23.065Z,100.00
2023-07-14T02:08:53.319Z,100.00
2023-07-14T02:11:24.961Z,100.00
2023-07-14T02:13:57.325Z,100.00
2023-07-14T02:16:28.245Z,100.00
2023-07-14T02:18:59.217Z,100.00
2023-07-14T02:21:31.104Z,100.00
2023-07-14T02:24:02.095Z,100.00
2023-07-14T02:26:34.454Z,100.00
2023-07-14T02:29:07.391Z,100.00
2023-07-14T02:31:44.068Z,100.00
2023-07-14T02:34:16.097Z,100.00
2023-07-14T02:36:59.531Z,100.00
2023-07-14T02:39:32.812Z,100.00
2023-07-14T02:42:03.546Z,100.00
2023-07-14T02:44:36.946Z,100.00
2023-07-14T02:47:11.257Z,100.00
2023-07-14T02:49:41.991Z,100.00
2023-07-14T02:52:11.921Z,100.00
2023-07-14T02:54:41.827Z,100.00
2023-07-14T02:57:11.521Z,100.00
2023-07-14T02:59:41.254Z,100.00
2023-07-14T03:02:11.580Z,100.00
2023-07-14T03:04:41.678Z,100.00
2023-07-14T03:07:13.018Z,100.00
2023-07-14T03:09:43.143Z,100.00
2023-07-14T03:12:13.271Z,100.00
2023-07-14T03:14:43.509Z,100.00
2023-07-14T03:17:13.704Z,100.00
2023-07-14T03:19:43.823Z,100.00
2023-07-14T03:22:13.117Z,100.00
2023-07-14T03:24:43.240Z,100.00
2023-07-14T03:27:13.361Z,100.00
2023-07-14T03:29:43.699Z,100.00
2023-07-14T03:32:14.977Z,100.00
2023-07-14T03:34:44.943Z,100.00
2023-07-14T03:37:15.061Z,100.00
2023-07-14T03:39:45.994Z,100.00
2023-07-14T03:42:16.518Z,100.00
2023-07-14T03:44:50.134Z,100.00
2023-07-14T03:47:20.163Z,100.00
2023-07-14T03:49:52.616Z,100.00
2023-07-14T03:52:22.937Z,100.00
2023-07-14T03:54:52.838Z,100.00
2023-07-14T03:57:22.783Z,100.00
2023-07-14T03:59:52.884Z,100.00
2023-07-14T04:02:22.805Z,100.00
2023-07-14T04:04:52.534Z,100.00
2023-07-14T04:07:22.834Z,100.00
2023-07-14T04:09:53.365Z,100.00
2023-07-14T04:12:23.272Z,100.00
2023-07-14T04:14:52.671Z,100.00
2023-07-14T04:17:23.023Z,100.00
2023-07-14T04:19:53.011Z,100.00
2023-07-14T04:22:25.883Z,100.00
2023-07-14T04:24:58.703Z,100.00
2023-07-14T04:27:30.322Z,100.00
2023-07-14T04:30:00.508Z,100.00
2023-07-14T04:32:31.220Z,100.00
2023-07-14T04:35:01.059Z,100.00
2023-07-14T04:37:30.606Z,100.00
2023-07-14T04:40:00.349Z,100.00
2023-07-14T04:42:30.238Z,100.00
2023-07-14T04:45:00.200Z,100.00
2023-07-14T04:47:30.008Z,100.00
2023-07-14T04:49:59.769Z,100.00
2023-07-14T04:52:30.300Z,100.00
2023-07-14T04:55:00.408Z,100.00
2023-07-14T04:57:30.938Z,100.00
2023-07-14T05:00:01.273Z,100.00
2023-07-14T05:02:31.469Z,100.00
2023-07-14T05:05:24.229Z,100.00
2023-07-14T05:07:56.184Z,100.00
2023-07-14T05:10:27.541Z,100.00
2023-07-14T05:12:58.281Z,100.00
2023-07-14T05:15:28.804Z,100.00
2023-07-14T05:17:58.729Z,100.00
2023-07-14T05:20:29.602Z,100.00
2023-07-14T05:22:59.365Z,100.00
2023-07-14T05:25:29.688Z,100.00
2023-07-14T05:27:59.594Z,100.00
2023-07-14T05:30:29.720Z,100.00
2023-07-14T05:32:59.845Z,100.00
2023-07-14T05:35:30.155Z,100.00
2023-07-14T05:38:00.418Z,100.00
2023-07-14T05:40:42.933Z,100.00
2023-07-14T05:43:17.928Z,100.00
2023-07-14T05:45:48.872Z,100.00
2023-07-14T05:48:19.031Z,100.00
2023-07-14T05:50:49.728Z,100.00
2023-07-14T05:53:19.849Z,100.00
2023-07-14T05:55:50.351Z,100.00
2023-07-14T05:58:20.065Z,100.00
2023-07-14T06:00:50.050Z,100.00
2023-07-14T06:03:19.899Z,100.00
2023-07-14T06:05:50.426Z,100.00
2023-07-14T06:08:23.443Z,100.00
2023-07-14T06:10:54.188Z,100.00
2023-07-14T06:13:24.461Z,100.00
2023-07-14T06:15:54.783Z,100.00
2023-07-14T06:18:24.701Z,100.00
2023-07-14T06:20:54.820Z,100.00
2023-07-14T06:23:28.140Z,100.00
2023-07-14T06:25:58.533Z,100.00
2023-07-14T06:28:28.656Z,100.00
2023-07-14T06:30:59.674Z,100.00
2023-07-14T06:33:29.918Z,100.00
2023-07-14T06:36:00.445Z,100.00
2023-07-14T06:38:30.760Z,100.00
2023-07-14T06:41:02.535Z,100.00
2023-07-14T06:43:34.078Z,100.00
2023-07-14T06:46:04.526Z,100.00
2023-07-14T06:48:34.980Z,100.00
2023-07-14T06:51:05.658Z,100.00
2023-07-14T06:53:35.569Z,100.00
2023-07-14T06:56:06.516Z,100.00
2023-07-14T06:58:37.042Z,100.00
2023-07-14T07:01:07.575Z,100.00
2023-07-14T07:03:37.685Z,100.00
2023-07-14T07:06:08.025Z,100.00
2023-07-14T07:08:38.743Z,100.00
2023-07-14T07:11:10.443Z,100.00
2023-07-14T07:13:40.625Z,100.00
2023-07-14T07:16:10.854Z,100.00
2023-07-14T07:18:40.860Z,100.00
2023-07-14T07:21:13.588Z,100.00
2023-07-14T07:23:43.579Z,100.00
2023-07-14T07:26:13.798Z,100.00
2023-07-14T07:28:43.771Z,100.00
2023-07-14T07:31:15.456Z,100.00
2023-07-14T07:33:45.259Z,100.00
2023-07-14T07:36:17.037Z,100.00
2023-07-14T07:38:47.151Z,100.00
2023-07-14T07:41:19.525Z,100.00
2023-07-14T07:43:49.414Z,100.00
2023-07-14T07:46:21.805Z,100.00
2023-07-14T07:48:51.698Z,100.00
2023-07-14T07:51:21.820Z,100.00
2023-07-14T07:53:51.939Z,100.00
2023-07-14T07:56:22.257Z,100.00
2023-07-14T07:58:52.243Z,100.00
2023-07-14T08:01:24.102Z,100.00
2023-07-14T08:03:54.334Z,100.00
2023-07-14T08:06:25.596Z,100.00
2023-07-14T08:08:55.445Z,100.00
2023-07-14T08:11:25.638Z,100.00
2023-07-14T08:13:55.755Z,100.00
2023-07-14T08:16:26.142Z,100.00
2023-07-14T08:18:55.782Z,100.00
2023-07-14T08:21:26.314Z,100.00
2023-07-14T08:23:56.643Z,100.00
2023-07-14T08:26:27.167Z,100.00
2023-07-14T08:28:56.887Z,100.00
2023-07-14T08:31:27.024Z,100.00
2023-07-14T08:33:57.032Z,100.00
2023-07-14T08:36:27.241Z,100.00
2023-07-14T08:38:57.093Z,100.00
2023-07-14T08:41:31.126Z,100.00
2023-07-14T08:44:17.935Z,100.00
2023-07-14T08:46:54.740Z,100.00
2023-07-14T08:49:28.366Z,100.00
2023-07-14T08:52:03.755Z,100.00
2023-07-14T08:54:43.038Z,100.00
2023-07-14T08:57:18.308Z,100.00
2023-07-14T08:59:52.569Z,100.00
2023-07-14T09:02:32.547Z,100.00
2023-07-14T09:05:06.576Z,100.00
2023-07-14T09:07:36.650Z,100.00
2023-07-14T09:10:11.775Z,100.00
2023-07-14T09:12:49.825Z,100.00
2023-07-14T09:15:23.335Z,100.00
2023-07-14T09:18:07.523Z,100.00
2023-07-14T09:20:47.985Z,100.00
2023-07-14T09:23:40.648Z,100.00
2023-07-14T09:26:17.934Z,100.00
2023-07-14T09:28:50.738Z,100.00
2023-07-14T09:31:38.874Z,100.00
2023-07-14T09:34:17.012Z,100.00
2023-07-14T09:36:47.695Z,100.00
2023-07-14T09:39:23.994Z,100.00
2023-07-14T09:41:56.148Z,100.00
2023-07-14T09:44:26.463Z,100.00
2023-07-14T09:46:57.162Z,100.00
2023-07-14T09:49:35.495Z,100.00
2023-07-14T09:52:13.152Z,100.00
2023-07-14T09:54:52.762Z,100.00
2023-07-14T09:57:38.673Z,100.00
2023-07-14T10:00:20.444Z,100.00
2023-07-14T10:03:08.621Z,100.00
2023-07-14T10:05:53.466Z,100.00
2023-07-14T10:08:30.994Z,100.00
2023-07-14T10:11:20.277Z,100.00
2023-07-14T10:13:55.521Z,100.00
2023-07-14T10:16:28.297Z,100.00
2023-07-14T10:19:01.042Z,100.00
2023-07-14T10:21:33.820Z,100.00
2023-07-14T10:24:06.417Z,100.00
2023-07-14T10:26:40.671Z,100.00
2023-07-14T10:29:21.004Z,99.16
2023-07-14T10:31:59.521Z,98.76
2023-07-14T10:34:52.956Z,98.63
2023-07-14T10:37:25.369Z,97.30
2023-07-14T10:39:59.761Z,97.19
2023-07-14T10:42:34.433Z,96.26
2023-07-14T10:45:05.367Z,95.52
2023-07-14T10:47:49.804Z,95.21
2023-07-14T10:50:21.286Z,93.65
2023-07-14T10:52:54.508Z,92.64
2023-07-14T10:55:27.883Z,90.30
2023-07-14T10:58:00.935Z,90.56
2023-07-14T11:00:37.867Z,88.90
2023-07-14T11:03:25.771Z,87.18
2023-07-14T11:05:58.972Z,85.88
2023-07-14T11:08:31.990Z,86.44
2023-07-14T11:11:11.152Z,85.23
2023-07-14T11:13:52.025Z,83.69
2023-07-14T11:16:35.138Z,83.48
2023-07-14T11:19:13.550Z,83.09
2023-07-14T11:21:50.676Z,86.28
2023-07-14T11:24:23.985Z,84.82
2023-07-14T11:27:13.578Z,83.54
2023-07-14T11:29:55.804Z,81.51
2023-07-14T11:32:31.698Z,82.68
2023-07-14T11:35:12.023Z,80.73
2023-07-14T11:37:53.808Z,82.33
2023-07-14T11:40:25.565Z,82.34
2023-07-14T11:42:59.598Z,81.80
2023-07-14T11:45:33.251Z,81.31
2023-07-14T11:48:04.793Z,80.68
2023-07-14T11:50:41.473Z,82.06
2023-07-14T11:53:22.791Z,82.03
2023-07-14T11:55:54.539Z,79.70
2023-07-14T11:58:29.780Z,79.31
2023-07-14T12:01:04.607Z,77.60
2023-07-14T12:03:37.404Z,75.56
2023-07-14T12:06:44.588Z,73.82
2023-07-14T12:09:17.147Z,71.47
2023-07-14T12:11:54.634Z,71.13
2023-07-14T12:14:45.530Z,71.58
2023-07-14T12:17:49.442Z,68.68
2023-07-14T12:20:33.620Z,67.19
2023-07-14T12:23:23.596Z,68.68
2023-07-14T12:25:59.903Z,70.06
2023-07-14T12:28:33.719Z,67.36
2023-07-14T12:31:07.396Z,66.02
2023-07-14T12:33:37.589Z,64.83
2023-07-14T12:36:15.368Z,63.84
2023-07-14T12:38:47.999Z,63.33
2023-07-14T12:41:19.724Z,62.65
2023-07-14T12:43:54.158Z,61.41
2023-07-14T12:46:27.924Z,59.39
2023-07-14T12:49:03.362Z,57.78
2023-07-14T12:51:37.247Z,56.42
2023-07-14T12:54:15.197Z,55.37
2023-07-14T12:56:45.928Z,53.77
2023-07-14T12:59:19.089Z,55.17
2023-07-14T13:01:51.168Z,56.07
2023-07-14T13:04:22.893Z,56.04
2023-07-14T13:07:03.531Z,55.57
2023-07-14T13:09:34.355Z,56.03
2023-07-14T13:12:09.366Z,56.25
2023-07-14T13:14:47.489Z,55.71
2023-07-14T13:17:22.539Z,56.70
2023-07-14T13:19:52.543Z,54.91
2023-07-14T13:22:25.688Z,54.32
2023-07-14T13:25:04.384Z,53.55
2023-07-14T13:27:37.564Z,53.67
2023-07-14T13:30:24.035Z,53.60
2023-07-14T13:32:56.418Z,55.02
2023-07-14T13:35:31.597Z,54.03
2023-07-14T13:38:14.106Z,53.16
2023-07-14T13:40:44.373Z,54.92
2023-07-14T13:43:18.058Z,54.80
2023-07-14T13:45:58.957Z,53.64
2023-07-14T13:48:32.926Z,52.02
2023-07-14T13:51:05.216Z,51.36
2023-07-14T13:53:35.922Z,50.12
2023-07-14T13:56:06.999Z,50.28
2023-07-14T13:58:37.324Z,51.21
2023-07-14T14:01:09.379Z,50.78
2023-07-14T14:03:40.544Z,50.18
2023-07-14T14:06:13.825Z,49.03
2023-07-14T14:08:44.147Z,49.33
2023-07-14T14:11:14.200Z,49.96
2023-07-14T14:13:44.384Z,49.57
2023-07-14T14:16:17.603Z,49.70
2023-07-14T14:18:50.620Z,49.33
2023-07-14T14:21:20.684Z,49.22
2023-07-14T14:23:50.801Z,50.04
2023-07-14T14:26:20.918Z,48.72
2023-07-14T14:28:51.049Z,48.53
2023-07-14T14:31:21.266Z,48.51
2023-07-14T14:33:51.484Z,48.77
2023-07-14T14:36:22.026Z,47.96
2023-07-14T14:38:51.922Z,47.58
2023-07-14T14:41:27.744Z,47.66
2023-07-14T14:43:58.308Z,47.63
2023-07-14T14:46:28.892Z,45.98
2023-07-14T14:48:59.768Z,46.73
2023-07-14T14:51:29.072Z,46.37
2023-07-14T14:53:59.392Z,47.33
2023-07-14T14:56:32.296Z,46.85
2023-07-14T14:59:08.448Z,46.42
2023-07-14T15:01:43.089Z,46.05
2023-07-14T15:04:17.608Z,45.69
2023-07-14T15:06:48.492Z,45.85
2023-07-14T15:09:19.133Z,45.04
2023-07-14T15:11:52.527Z,45.28
2023-07-14T15:14:30.253Z,45.63
2023-07-14T15:17:00.848Z,45.63
2023-07-14T15:19:32.327Z,45.24
2023-07-14T15:22:02.443Z,45.94
2023-07-14T15:24:32.767Z,45.54
2023-07-14T15:27:03.091Z,45.58
2023-07-14T15:29:33.413Z,45.96
2023-07-14T15:32:03.355Z,45.96
2023-07-14T15:34:34.279Z,45.85
2023-07-14T15:37:05.818Z,45.85
2023-07-14T15:39:35.944Z,45.48
2023-07-14T15:42:10.590Z,45.26
2023-07-14T15:44:41.084Z,45.71
2023-07-14T15:47:16.528Z,45.93
2023-07-14T15:49:48.284Z,45.95
2023-07-14T15:52:21.278Z,46.03
2023-07-14T15:54:51.467Z,46.64
2023-07-14T15:57:21.741Z,45.97
2023-07-14T15:59:51.835Z,45.65
2023-07-14T16:02:21.766Z,45.96
2023-07-14T16:04:53.307Z,45.88
2023-07-14T16:07:23.426Z,46.04
2023-07-14T16:09:53.952Z,46.85
2023-07-14T16:12:24.281Z,45.75
2023-07-14T16:14:54.598Z,46.29
2023-07-14T16:17:24.572Z,46.16
2023-07-14T16:19:54.453Z,47.26
2023-07-14T16:22:24.691Z,47.47
2023-07-14T16:24:55.487Z,47.74
2023-07-14T16:27:26.832Z,48.40
2023-07-14T16:29:57.085Z,48.54
2023-07-14T16:32:28.577Z,48.94
2023-07-14T16:35:01.233Z,49.00
2023-07-14T16:37:32.846Z,49.41
2023-07-14T16:40:07.626Z,50.06
2023-07-14T16:42:39.418Z,50.27
2023-07-14T16:45:16.845Z,50.37
2023-07-14T16:47:47.295Z,50.00
2023-07-14T16:50:17.763Z,50.20
2023-07-14T16:52:51.352Z,51.01
2023-07-14T16:55:24.863Z,51.92
2023-07-14T16:57:57.012Z,52.68
2023-07-14T17:00:29.093Z,53.60
2023-07-14T17:03:02.332Z,54.43
2023-07-14T17:05:35.515Z,55.37
2023-07-14T17:08:16.806Z,56.05
2023-07-14T17:10:47.393Z,56.81
2023-07-14T17:13:26.191Z,57.94
2023-07-14T17:15:58.944Z,58.48
2023-07-14T17:18:30.839Z,59.14
2023-07-14T17:21:03.299Z,59.22
2023-07-14T17:23:37.248Z,59.97
2023-07-14T17:26:07.252Z,60.86
2023-07-14T17:28:38.298Z,62.16
2023-07-14T17:31:09.831Z,63.41
2023-07-14T17:33:39.968Z,64.28
2023-07-14T17:36:12.081Z,65.03
2023-07-14T17:38:42.247Z,66.27
2023-07-14T17:41:12.865Z,67.56
2023-07-14T17:43:43.945Z,68.32
2023-07-14T17:46:13.039Z,69.90
2023-07-14T17:48:43.340Z,70.11
2023-07-14T17:51:14.490Z,71.24
2023-07-14T17:53:43.372Z,72.89
2023-07-14T17:56:13.338Z,73.01
2023-07-14T17:58:43.615Z,73.82
2023-07-14T18:01:16.888Z,74.93
2023-07-14T18:03:47.475Z,75.68
2023-07-14T18:06:22.143Z,76.66
2023-07-14T18:08:52.908Z,77.98
2023-07-14T18:11:25.108Z,78.66
2023-07-14T18:13:55.590Z,79.60
2023-07-14T18:16:25.719Z,80.92
2023-07-14T18:18:56.238Z,82.15
2023-07-14T18:21:26.712Z,83.77
2023-07-14T18:23:56.880Z,86.20
2023-07-14T18:26:27.408Z,88.19
2023-07-14T18:28:57.535Z,90.44
2023-07-14T18:31:27.632Z,91.83
2023-07-14T18:33:57.564Z,93.33
2023-07-14T18:36:27.885Z,94.31
2023-07-14T18:38:58.205Z,95.37
2023-07-14T18:41:28.122Z,96.57
2023-07-14T18:43:58.238Z,97.36
2023-07-14T18:46:28.739Z,98.09
2023-07-14T18:48:59.102Z,99.07
2023-07-14T18:51:34.332Z,99.54
2023-07-14T18:54:15.363Z,100.00
2023-07-14T18:56:44.410Z,100.00
2023-07-14T18:59:14.337Z,100.00
2023-07-14T19:01:45.525Z,100.00
2023-07-14T19:04:15.806Z,100.00
2023-07-14T19:06:47.358Z,100.00
2023-07-14T19:09:19.351Z,100.00
2023-07-14T19:11:56.186Z,100.00
2023-07-14T19:14:27.757Z,100.00
2023-07-14T19:16:58.367Z,100.00
2023-07-14T19:19:28.790Z,100.00
2023-07-14T19:21:58.902Z,100.00
2023-07-14T19:24:29.867Z,100.00
2023-07-14T19:26:59.959Z,100.00
2023-07-14T19:29:31.309Z,100.00
2023-07-14T19:32:01.267Z,100.00
2023-07-14T19:34:33.593Z,100.00
2023-07-14T19:37:04.542Z,100.00
2023-07-14T19:39:35.882Z,100.00
2023-07-14T19:42:17.159Z,100.00
2023-07-14T19:44:45.759Z,100.00
2023-07-14T19:47:18.725Z,100.00
2023-07-14T19:49:49.057Z,100.00
2023-07-14T19:52:19.374Z,100.00
2023-07-14T19:54:50.933Z,100.00
2023-07-14T19:57:21.203Z,100.00
2023-07-14T20:00:01.125Z,100.00
2023-07-14T20:02:31.568Z,100.00
2023-07-14T20:05:02.870Z,100.00
2023-07-14T20:07:32.987Z,100.00
2023-07-14T20:10:02.712Z,100.00
2023-07-14T20:12:33.225Z,100.00
2023-07-14T20:15:04.777Z,100.00
2023-07-14T20:17:35.763Z,100.00
2023-07-14T20:20:14.654Z,100.00
2023-07-14T20:22:49.354Z,100.00
2023-07-14T20:25:20.591Z,100.00
2023-07-14T20:27:50.807Z,100.00
2023-07-14T20:30:23.715Z,100.00
2023-07-14T20:32:53.643Z,100.00
2023-07-14T20:35:25.318Z,100.00
2023-07-14T20:37:55.295Z,100.00
2023-07-14T20:40:25.213Z,100.00
2023-07-14T20:42:55.745Z,100.00
2023-07-14T20:45:25.739Z,100.00
2023-07-14T20:47:56.010Z,100.00
2023-07-14T20:50:28.923Z,100.00
2023-07-14T20:53:00.311Z,100.00
2023-07-14T20:55:30.024Z,100.00
2023-07-14T20:58:01.929Z,100.00
2023-07-14T21:00:32.301Z,100.00
2023-07-14T21:03:04.458Z,100.00
2023-07-14T21:05:34.633Z,100.00
2023-07-14T21:08:17.624Z,100.00
2023-07-14T21:10:48.776Z,100.00
2023-07-14T21:13:21.254Z,100.00
2023-07-14T21:15:52.803Z,100.00
2023-07-14T21:18:24.236Z,100.00
2023-07-14T21:20:54.548Z,100.00
2023-07-14T21:23:26.635Z,100.00
2023-07-14T21:25:58.506Z,100.00
2023-07-14T21:28:29.414Z,100.00
2023-07-14T21:31:03.945Z,100.00
2023-07-14T21:33:36.332Z,100.00
2023-07-14T21:36:07.773Z,100.00
2023-07-14T21:38:38.289Z,100.00
2023-07-14T21:41:10.583Z,100.00
2023-07-14T21:43:42.620Z,100.00
2023-07-14T21:46:16.588Z,100.00
2023-07-14T21:48:47.220Z,100.00
2023-07-14T21:51:19.462Z,100.00
2023-07-14T21:53:52.968Z,100.00
2023-07-14T21:56:23.405Z,100.00
2023-07-14T21:58:53.511Z,100.00
2023-07-14T22:01:26.023Z,100.00
2023-07-14T22:03:57.604Z,100.00
2023-07-14T22:06:28.641Z,100.00
2023-07-14T22:08:59.173Z,100.00
2023-07-14T22:11:31.119Z,100.00
2023-07-14T22:14:02.268Z,100.00
2023-07-14T22:16:31.802Z,100.00
2023-07-14T22:19:01.950Z,100.00
2023-07-14T22:21:33.402Z,100.00
2023-07-14T22:24:04.185Z,100.00
2023-07-14T22:26:34.303Z,100.00
2023-07-14T22:29:04.439Z,100.00
2023-07-14T22:31:35.556Z,100.00
2023-07-14T22:34:14.279Z,100.00
2023-07-14T22:36:44.192Z,100.00
2023-07-14T22:39:18.175Z,100.00
2023-07-14T22:41:50.419Z,100.00
2023-07-14T22:44:20.292Z,100.00
2023-07-14T22:46:50.432Z,100.00
2023-07-14T22:49:20.736Z,100.00
2023-07-14T22:51:54.150Z,100.00
2023-07-14T22:54:24.644Z,100.00
2023-07-14T22:56:54.973Z,100.00
2023-07-14T22:59:25.087Z,100.00
2023-07-14T23:01:56.502Z,100.00
2023-07-14T23:04:25.568Z,100.00
2023-07-14T23:06:55.447Z,100.00
2023-07-14T23:09:25.348Z,100.00
2023-07-14T23:11:55.686Z,100.00
2023-07-14T23:14:26.009Z,100.00
2023-07-14T23:16:56.254Z,100.00
2023-07-14T23:19:27.394Z,100.00
2023-07-14T23:21:57.592Z,100.00
2023-07-14T23:24:27.626Z,100.00
2023-07-14T23:26:57.833Z,100.00
2023-07-14T23:29:27.672Z,100.00
2023-07-14T23:31:57.492Z,100.00
2023-07-14T23:34:27.767Z,100.00
2023-07-14T23:36:57.689Z,100.00
2023-07-14T23:39:27.252Z,100.00
2023-07-14T23:41:57.312Z,100.00
2023-07-14T23:44:27.573Z,100.00
2023-07-14T23:46:57.950Z,100.00
2023-07-14T23:49:28.278Z,100.00
2023-07-14T23:51:58.807Z,100.00
2023-07-14T23:54:30.154Z,100.00
2023-07-14T23:56:59.050Z,100.00
2023-07-14T23:59:28.749Z,100.00
